sensor_id;sensor_type;location;lat;lon;timestamp;P1;durP1;ratioP1;P2;durP2;ratioP2
20296;SDS011;10307;40.100;18.336;2022-12-07T00:01:33;27.25;;;9.90;;
20296;SDS011;10307;40.100;18.336;2022-12-07T00:04:03;23.58;;;10.25;;
20296;SDS011;10307;40.100;18.336;2022-12-07T00:08:59;30.92;;;10.55;;
20296;SDS011;10307;40.100;18.336;2022-12-07T00:11:26;25.60;;;10.23;;
20296;SDS011;10307;40.100;18.336;2022-12-07T00:13:54;22.20;;;8.55;;
20296;SDS011;10307;40.100;18.336;2022-12-07T00:16:23;22.90;;;9.05;;
20296;SDS011;10307;40.100;18.336;2022-12-07T00:18:52;18.77;;;8.50;;
20296;SDS011;10307;40.100;18.336;2022-12-07T00:21:23;19.75;;;8.25;;
20296;SDS011;10307;40.100;18.336;2022-12-07T00:26:20;18.85;;;7.88;;
20296;SDS011;10307;40.100;18.336;2022-12-07T00:28:49;20.77;;;7.75;;
20296;SDS011;10307;40.100;18.336;2022-12-07T00:31:18;16.88;;;7.68;;
20296;SDS011;10307;40.100;18.336;2022-12-07T00:33:46;17.45;;;8.35;;
20296;SDS011;10307;40.100;18.336;2022-12-07T00:36:14;18.17;;;7.30;;
20296;SDS011;10307;40.100;18.336;2022-12-07T00:38:42;16.02;;;8.60;;
20296;SDS011;10307;40.100;18.336;2022-12-07T00:41:13;17.27;;;7.70;;
20296;SDS011;10307;40.100;18.336;2022-12-07T00:43:42;23.02;;;8.98;;
20296;SDS011;10307;40.100;18.336;2022-12-07T00:46:09;22.90;;;8.20;;
20296;SDS011;10307;40.100;18.336;2022-12-07T00:48:36;18.48;;;7.80;;
20296;SDS011;10307;40.100;18.336;2022-12-07T00:51:03;17.85;;;7.75;;
20296;SDS011;10307;40.100;18.336;2022-12-07T00:53:33;19.67;;;9.02;;
20296;SDS011;10307;40.100;18.336;2022-12-07T00:56:07;23.65;;;8.13;;
20296;SDS011;10307;40.100;18.336;2022-12-07T00:58:35;19.38;;;8.02;;
20296;SDS011;10307;40.100;18.336;2022-12-07T01:01:01;17.17;;;9.18;;
20296;SDS011;10307;40.100;18.336;2022-12-07T01:03:28;16.95;;;8.65;;
20296;SDS011;10307;40.100;18.336;2022-12-07T01:05:55;17.90;;;8.85;;
20296;SDS011;10307;40.100;18.336;2022-12-07T01:08:23;15.73;;;7.13;;
20296;SDS011;10307;40.100;18.336;2022-12-07T01:10:57;20.88;;;7.65;;
20296;SDS011;10307;40.100;18.336;2022-12-07T01:13:28;17.52;;;7.90;;
20296;SDS011;10307;40.100;18.336;2022-12-07T01:15:58;17.65;;;8.35;;
20296;SDS011;10307;40.100;18.336;2022-12-07T01:18:26;18.25;;;7.93;;
20296;SDS011;10307;40.100;18.336;2022-12-07T01:20:58;20.42;;;8.00;;
20296;SDS011;10307;40.100;18.336;2022-12-07T01:23:25;18.90;;;7.53;;
20296;SDS011;10307;40.100;18.336;2022-12-07T01:25:59;21.73;;;7.90;;
20296;SDS011;10307;40.100;18.336;2022-12-07T01:28:28;18.88;;;8.10;;
20296;SDS011;10307;40.100;18.336;2022-12-07T01:30:56;20.30;;;8.68;;
20296;SDS011;10307;40.100;18.336;2022-12-07T01:33:28;16.52;;;8.05;;
20296;SDS011;10307;40.100;18.336;2022-12-07T01:36:07;15.70;;;8.50;;
20296;SDS011;10307;40.100;18.336;2022-12-07T01:38:45;17.00;;;7.93;;
20296;SDS011;10307;40.100;18.336;2022-12-07T01:41:13;18.75;;;9.48;;
20296;SDS011;10307;40.100;18.336;2022-12-07T01:46:36;18.63;;;8.52;;
20296;SDS011;10307;40.100;18.336;2022-12-07T01:49:04;18.83;;;8.45;;
20296;SDS011;10307;40.100;18.336;2022-12-07T01:51:34;16.58;;;9.65;;
20296;SDS011;10307;40.100;18.336;2022-12-07T01:54:03;20.58;;;9.15;;
20296;SDS011;10307;40.100;18.336;2022-12-07T01:56:29;19.50;;;8.52;;
20296;SDS011;10307;40.100;18.336;2022-12-07T01:58:57;15.38;;;7.88;;
20296;SDS011;10307;40.100;18.336;2022-12-07T02:01:25;22.35;;;9.18;;
20296;SDS011;10307;40.100;18.336;2022-12-07T02:03:52;24.13;;;8.80;;
20296;SDS011;10307;40.100;18.336;2022-12-07T02:06:20;18.90;;;9.30;;
20296;SDS011;10307;40.100;18.336;2022-12-07T02:08:50;14.70;;;7.68;;
20296;SDS011;10307;40.100;18.336;2022-12-07T02:11:16;16.15;;;7.43;;
20296;SDS011;10307;40.100;18.336;2022-12-07T02:13:43;17.02;;;7.63;;
20296;SDS011;10307;40.100;18.336;2022-12-07T02:30:55;16.90;;;7.13;;
20296;SDS011;10307;40.100;18.336;2022-12-07T02:33:36;14.05;;;6.22;;
20296;SDS011;10307;40.100;18.336;2022-12-07T02:36:16;16.15;;;7.75;;
20296;SDS011;10307;40.100;18.336;2022-12-07T02:38:49;14.13;;;6.07;;
20296;SDS011;10307;40.100;18.336;2022-12-07T02:44:10;23.55;;;7.75;;
20296;SDS011;10307;40.100;18.336;2022-12-07T02:46:42;15.43;;;6.50;;
20296;SDS011;10307;40.100;18.336;2022-12-07T02:49:27;14.07;;;6.10;;
20296;SDS011;10307;40.100;18.336;2022-12-07T02:51:54;15.45;;;6.35;;
20296;SDS011;10307;40.100;18.336;2022-12-07T02:54:21;12.00;;;5.78;;
20296;SDS011;10307;40.100;18.336;2022-12-07T02:56:49;13.32;;;5.93;;
20296;SDS011;10307;40.100;18.336;2022-12-07T02:59:31;17.83;;;6.03;;
20296;SDS011;10307;40.100;18.336;2022-12-07T03:02:27;14.27;;;5.72;;
20296;SDS011;10307;40.100;18.336;2022-12-07T03:05:20;17.63;;;6.15;;
20296;SDS011;10307;40.100;18.336;2022-12-07T03:13:43;13.82;;;5.93;;
20296;SDS011;10307;40.100;18.336;2022-12-07T03:21:16;15.05;;;6.85;;
20296;SDS011;10307;40.100;18.336;2022-12-07T03:23:46;12.98;;;5.47;;
20296;SDS011;10307;40.100;18.336;2022-12-07T03:26:17;16.52;;;6.22;;
20296;SDS011;10307;40.100;18.336;2022-12-07T03:28:49;17.73;;;6.88;;
20296;SDS011;10307;40.100;18.336;2022-12-07T03:31:22;13.73;;;6.10;;
20296;SDS011;10307;40.100;18.336;2022-12-07T03:33:55;13.13;;;5.15;;
20296;SDS011;10307;40.100;18.336;2022-12-07T03:36:37;13.77;;;4.53;;
20296;SDS011;10307;40.100;18.336;2022-12-07T03:39:23;12.27;;;5.85;;
20296;SDS011;10307;40.100;18.336;2022-12-07T03:41:55;17.80;;;5.32;;
20296;SDS011;10307;40.100;18.336;2022-12-07T03:44:22;13.27;;;5.70;;
20296;SDS011;10307;40.100;18.336;2022-12-07T03:49:44;11.35;;;4.32;;
20296;SDS011;10307;40.100;18.336;2022-12-07T03:52:28;10.98;;;5.65;;
20296;SDS011;10307;40.100;18.336;2022-12-07T03:57:46;15.70;;;6.55;;
20296;SDS011;10307;40.100;18.336;2022-12-07T04:00:16;12.85;;;7.07;;
20296;SDS011;10307;40.100;18.336;2022-12-07T04:02:43;13.88;;;6.70;;
20296;SDS011;10307;40.100;18.336;2022-12-07T04:05:10;18.63;;;7.47;;
20296;SDS011;10307;40.100;18.336;2022-12-07T04:07:37;14.65;;;6.85;;
20296;SDS011;10307;40.100;18.336;2022-12-07T04:10:03;15.20;;;6.93;;
20296;SDS011;10307;40.100;18.336;2022-12-07T04:12:30;15.05;;;6.78;;
20296;SDS011;10307;40.100;18.336;2022-12-07T04:14:56;17.45;;;6.18;;
20296;SDS011;10307;40.100;18.336;2022-12-07T04:17:23;16.30;;;6.38;;
20296;SDS011;10307;40.100;18.336;2022-12-07T04:19:49;15.27;;;6.53;;
20296;SDS011;10307;40.100;18.336;2022-12-07T04:22:15;15.45;;;6.90;;
20296;SDS011;10307;40.100;18.336;2022-12-07T04:24:42;15.50;;;6.78;;
20296;SDS011;10307;40.100;18.336;2022-12-07T04:27:08;15.55;;;6.35;;
20296;SDS011;10307;40.100;18.336;2022-12-07T04:29:34;14.50;;;6.75;;
20296;SDS011;10307;40.100;18.336;2022-12-07T04:32:01;11.25;;;6.50;;
20296;SDS011;10307;40.100;18.336;2022-12-07T04:34:27;12.18;;;6.65;;
20296;SDS011;10307;40.100;18.336;2022-12-07T04:36:53;14.45;;;6.03;;
20296;SDS011;10307;40.100;18.336;2022-12-07T04:39:27;15.88;;;6.15;;
20296;SDS011;10307;40.100;18.336;2022-12-07T04:41:55;12.82;;;6.47;;
20296;SDS011;10307;40.100;18.336;2022-12-07T04:44:22;11.88;;;5.70;;
20296;SDS011;10307;40.100;18.336;2022-12-07T04:46:50;15.50;;;5.55;;
20296;SDS011;10307;40.100;18.336;2022-12-07T04:49:17;15.43;;;5.22;;
20296;SDS011;10307;40.100;18.336;2022-12-07T04:51:45;13.18;;;5.28;;
20296;SDS011;10307;40.100;18.336;2022-12-07T04:54:11;18.25;;;6.63;;
20296;SDS011;10307;40.100;18.336;2022-12-07T04:56:39;11.63;;;5.35;;
20296;SDS011;10307;40.100;18.336;2022-12-07T04:59:05;16.55;;;5.30;;
20296;SDS011;10307;40.100;18.336;2022-12-07T05:01:32;14.63;;;5.85;;
20296;SDS011;10307;40.100;18.336;2022-12-07T05:03:58;11.75;;;5.45;;
20296;SDS011;10307;40.100;18.336;2022-12-07T05:06:25;16.00;;;5.85;;
20296;SDS011;10307;40.100;18.336;2022-12-07T05:08:51;16.38;;;5.75;;
20296;SDS011;10307;40.100;18.336;2022-12-07T05:11:18;18.52;;;6.22;;
20296;SDS011;10307;40.100;18.336;2022-12-07T05:14:04;21.20;;;7.78;;
20296;SDS011;10307;40.100;18.336;2022-12-07T05:16:36;13.77;;;6.13;;
20296;SDS011;10307;40.100;18.336;2022-12-07T05:19:03;15.88;;;6.57;;
20296;SDS011;10307;40.100;18.336;2022-12-07T05:21:29;12.70;;;5.68;;
20296;SDS011;10307;40.100;18.336;2022-12-07T05:23:56;15.45;;;5.82;;
20296;SDS011;10307;40.100;18.336;2022-12-07T05:26:26;13.88;;;6.55;;
20296;SDS011;10307;40.100;18.336;2022-12-07T05:28:53;15.77;;;6.28;;
20296;SDS011;10307;40.100;18.336;2022-12-07T05:31:20;13.20;;;5.28;;
20296;SDS011;10307;40.100;18.336;2022-12-07T05:33:47;15.00;;;6.32;;
20296;SDS011;10307;40.100;18.336;2022-12-07T05:36:14;10.90;;;6.35;;
20296;SDS011;10307;40.100;18.336;2022-12-07T05:38:40;13.02;;;6.18;;
20296;SDS011;10307;40.100;18.336;2022-12-07T05:41:07;20.92;;;7.53;;
20296;SDS011;10307;40.100;18.336;2022-12-07T05:43:57;21.02;;;8.60;;
20296;SDS011;10307;40.100;18.336;2022-12-07T05:46:23;18.38;;;7.25;;
20296;SDS011;10307;40.100;18.336;2022-12-07T05:48:50;17.60;;;7.60;;
20296;SDS011;10307;40.100;18.336;2022-12-07T05:51:16;12.57;;;6.55;;
20296;SDS011;10307;40.100;18.336;2022-12-07T05:53:44;18.88;;;6.45;;
20296;SDS011;10307;40.100;18.336;2022-12-07T05:56:10;13.90;;;7.05;;
20296;SDS011;10307;40.100;18.336;2022-12-07T05:58:37;13.55;;;6.85;;
20296;SDS011;10307;40.100;18.336;2022-12-07T06:01:22;12.68;;;7.53;;
20296;SDS011;10307;40.100;18.336;2022-12-07T06:03:48;17.92;;;7.40;;
20296;SDS011;10307;40.100;18.336;2022-12-07T06:06:15;13.93;;;7.10;;
20296;SDS011;10307;40.100;18.336;2022-12-07T06:08:41;11.40;;;6.07;;
20296;SDS011;10307;40.100;18.336;2022-12-07T06:11:08;13.02;;;6.28;;
20296;SDS011;10307;40.100;18.336;2022-12-07T06:13:52;13.63;;;6.63;;
20296;SDS011;10307;40.100;18.336;2022-12-07T06:16:19;16.38;;;5.10;;
20296;SDS011;10307;40.100;18.336;2022-12-07T06:18:45;12.82;;;5.40;;
20296;SDS011;10307;40.100;18.336;2022-12-07T06:21:11;12.80;;;5.63;;
20296;SDS011;10307;40.100;18.336;2022-12-07T06:23:38;11.70;;;5.00;;
20296;SDS011;10307;40.100;18.336;2022-12-07T06:26:04;17.33;;;5.63;;
20296;SDS011;10307;40.100;18.336;2022-12-07T06:28:31;11.40;;;5.75;;
20296;SDS011;10307;40.100;18.336;2022-12-07T06:30:58;15.85;;;6.47;;
20296;SDS011;10307;40.100;18.336;2022-12-07T06:33:25;14.55;;;6.70;;
20296;SDS011;10307;40.100;18.336;2022-12-07T06:35:52;13.18;;;6.22;;
20296;SDS011;10307;40.100;18.336;2022-12-07T06:38:18;15.73;;;6.43;;
20296;SDS011;10307;40.100;18.336;2022-12-07T06:40:45;20.20;;;8.68;;
20296;SDS011;10307;40.100;18.336;2022-12-07T06:43:11;15.65;;;8.35;;
20296;SDS011;10307;40.100;18.336;2022-12-07T06:45:38;17.65;;;8.98;;
20296;SDS011;10307;40.100;18.336;2022-12-07T06:48:04;16.98;;;8.73;;
20296;SDS011;10307;40.100;18.336;2022-12-07T06:50:30;20.25;;;9.18;;
20296;SDS011;10307;40.100;18.336;2022-12-07T06:52:57;20.35;;;10.68;;
20296;SDS011;10307;40.100;18.336;2022-12-07T06:55:23;21.30;;;10.15;;
20296;SDS011;10307;40.100;18.336;2022-12-07T06:57:49;18.83;;;9.23;;
20296;SDS011;10307;40.100;18.336;2022-12-07T07:00:16;19.70;;;8.45;;
20296;SDS011;10307;40.100;18.336;2022-12-07T07:02:43;20.10;;;9.23;;
20296;SDS011;10307;40.100;18.336;2022-12-07T07:05:09;15.50;;;8.05;;
20296;SDS011;10307;40.100;18.336;2022-12-07T07:07:35;25.70;;;9.93;;
20296;SDS011;10307;40.100;18.336;2022-12-07T07:10:02;22.48;;;11.27;;
20296;SDS011;10307;40.100;18.336;2022-12-07T07:12:28;28.42;;;14.52;;
20296;SDS011;10307;40.100;18.336;2022-12-07T07:14:55;38.13;;;19.98;;
20296;SDS011;10307;40.100;18.336;2022-12-07T07:17:22;26.30;;;15.40;;
20296;SDS011;10307;40.100;18.336;2022-12-07T07:19:48;24.23;;;13.48;;
20296;SDS011;10307;40.100;18.336;2022-12-07T07:22:14;25.98;;;13.75;;
20296;SDS011;10307;40.100;18.336;2022-12-07T07:24:40;20.55;;;12.32;;
20296;SDS011;10307;40.100;18.336;2022-12-07T07:27:07;24.55;;;11.90;;
20296;SDS011;10307;40.100;18.336;2022-12-07T07:29:33;30.48;;;17.92;;
20296;SDS011;10307;40.100;18.336;2022-12-07T07:32:00;28.25;;;17.35;;
20296;SDS011;10307;40.100;18.336;2022-12-07T07:34:26;30.13;;;14.50;;
20296;SDS011;10307;40.100;18.336;2022-12-07T07:36:53;26.25;;;14.00;;
20296;SDS011;10307;40.100;18.336;2022-12-07T07:39:19;24.92;;;15.07;;
20296;SDS011;10307;40.100;18.336;2022-12-07T07:41:46;30.75;;;17.40;;
20296;SDS011;10307;40.100;18.336;2022-12-07T07:44:23;33.25;;;17.08;;
20296;SDS011;10307;40.100;18.336;2022-12-07T07:46:49;27.00;;;16.17;;
20296;SDS011;10307;40.100;18.336;2022-12-07T07:49:15;30.15;;;17.60;;
20296;SDS011;10307;40.100;18.336;2022-12-07T07:51:41;30.15;;;16.83;;
20296;SDS011;10307;40.100;18.336;2022-12-07T07:54:08;33.70;;;16.23;;
20296;SDS011;10307;40.100;18.336;2022-12-07T07:56:34;25.13;;;14.38;;
20296;SDS011;10307;40.100;18.336;2022-12-07T07:59:00;30.92;;;14.73;;
20296;SDS011;10307;40.100;18.336;2022-12-07T08:01:27;25.48;;;9.93;;
20296;SDS011;10307;40.100;18.336;2022-12-07T08:03:53;27.52;;;8.88;;
20296;SDS011;10307;40.100;18.336;2022-12-07T08:06:20;18.33;;;7.38;;
20296;SDS011;10307;40.100;18.336;2022-12-07T08:08:46;19.27;;;6.85;;
20296;SDS011;10307;40.100;18.336;2022-12-07T08:11:12;15.32;;;5.82;;
20296;SDS011;10307;40.100;18.336;2022-12-07T08:13:38;14.07;;;5.20;;
20296;SDS011;10307;40.100;18.336;2022-12-07T08:16:06;11.80;;;5.20;;
20296;SDS011;10307;40.100;18.336;2022-12-07T08:18:35;15.98;;;5.45;;
20296;SDS011;10307;40.100;18.336;2022-12-07T08:21:03;21.45;;;5.75;;
20296;SDS011;10307;40.100;18.336;2022-12-07T08:23:31;14.18;;;4.60;;
20296;SDS011;10307;40.100;18.336;2022-12-07T08:26:02;14.88;;;4.38;;
20296;SDS011;10307;40.100;18.336;2022-12-07T08:28:29;14.23;;;3.67;;
20296;SDS011;10307;40.100;18.336;2022-12-07T08:30:59;12.40;;;4.55;;
20296;SDS011;10307;40.100;18.336;2022-12-07T08:33:29;13.50;;;4.72;;
20296;SDS011;10307;40.100;18.336;2022-12-07T08:36:06;11.82;;;4.35;;
20296;SDS011;10307;40.100;18.336;2022-12-07T08:38:35;11.25;;;3.85;;
20296;SDS011;10307;40.100;18.336;2022-12-07T08:41:02;12.80;;;3.97;;
20296;SDS011;10307;40.100;18.336;2022-12-07T08:43:29;11.82;;;3.90;;
20296;SDS011;10307;40.100;18.336;2022-12-07T08:46:03;12.68;;;4.07;;
20296;SDS011;10307;40.100;18.336;2022-12-07T08:48:30;14.82;;;4.95;;
20296;SDS011;10307;40.100;18.336;2022-12-07T08:50:58;24.00;;;11.25;;
20296;SDS011;10307;40.100;18.336;2022-12-07T08:53:26;17.27;;;6.50;;
20296;SDS011;10307;40.100;18.336;2022-12-07T08:55:54;14.77;;;2.90;;
20296;SDS011;10307;40.100;18.336;2022-12-07T08:58:22;9.98;;;2.50;;
20296;SDS011;10307;40.100;18.336;2022-12-07T09:00:48;15.35;;;3.25;;
20296;SDS011;10307;40.100;18.336;2022-12-07T09:03:15;23.00;;;7.18;;
20296;SDS011;10307;40.100;18.336;2022-12-07T09:05:41;27.77;;;7.03;;
20296;SDS011;10307;40.100;18.336;2022-12-07T09:08:07;17.15;;;6.18;;
20296;SDS011;10307;40.100;18.336;2022-12-07T09:10:34;19.33;;;6.22;;
20296;SDS011;10307;40.100;18.336;2022-12-07T09:13:00;15.48;;;4.35;;
20296;SDS011;10307;40.100;18.336;2022-12-07T09:15:30;12.23;;;3.00;;
20296;SDS011;10307;40.100;18.336;2022-12-07T09:17:56;13.15;;;2.60;;
20296;SDS011;10307;40.100;18.336;2022-12-07T09:20:23;14.98;;;2.67;;
20296;SDS011;10307;40.100;18.336;2022-12-07T09:22:49;9.50;;;2.47;;
20296;SDS011;10307;40.100;18.336;2022-12-07T09:25:16;10.20;;;2.60;;
20296;SDS011;10307;40.100;18.336;2022-12-07T09:27:42;10.57;;;3.17;;
20296;SDS011;10307;40.100;18.336;2022-12-07T09:30:09;6.10;;;2.13;;
20296;SDS011;10307;40.100;18.336;2022-12-07T09:32:35;16.83;;;2.58;;
20296;SDS011;10307;40.100;18.336;2022-12-07T09:35:02;11.75;;;2.55;;
20296;SDS011;10307;40.100;18.336;2022-12-07T09:37:29;13.20;;;2.50;;
20296;SDS011;10307;40.100;18.336;2022-12-07T09:39:57;13.20;;;2.47;;
20296;SDS011;10307;40.100;18.336;2022-12-07T09:42:30;10.20;;;2.50;;
20296;SDS011;10307;40.100;18.336;2022-12-07T09:45:00;12.35;;;3.67;;
20296;SDS011;10307;40.100;18.336;2022-12-07T09:47:30;10.30;;;2.90;;
20296;SDS011;10307;40.100;18.336;2022-12-07T09:50:21;12.60;;;2.88;;
20296;SDS011;10307;40.100;18.336;2022-12-07T09:52:48;15.55;;;4.47;;
20296;SDS011;10307;40.100;18.336;2022-12-07T09:55:27;26.90;;;7.10;;
20296;SDS011;10307;40.100;18.336;2022-12-07T09:57:55;19.83;;;6.47;;
20296;SDS011;10307;40.100;18.336;2022-12-07T10:00:23;14.93;;;4.10;;
20296;SDS011;10307;40.100;18.336;2022-12-07T10:05:25;14.73;;;5.15;;
20296;SDS011;10307;40.100;18.336;2022-12-07T10:08:02;17.80;;;6.07;;
20296;SDS011;10307;40.100;18.336;2022-12-07T10:10:30;15.18;;;4.80;;
20296;SDS011;10307;40.100;18.336;2022-12-07T10:12:59;14.02;;;4.70;;
20296;SDS011;10307;40.100;18.336;2022-12-07T10:18:39;8.98;;;3.20;;
20296;SDS011;10307;40.100;18.336;2022-12-07T10:21:12;12.80;;;4.78;;
20296;SDS011;10307;40.100;18.336;2022-12-07T10:23:59;17.17;;;5.13;;
20296;SDS011;10307;40.100;18.336;2022-12-07T10:29:21;9.80;;;4.07;;
20296;SDS011;10307;40.100;18.336;2022-12-07T10:31:59;15.70;;;3.80;;
20296;SDS011;10307;40.100;18.336;2022-12-07T10:34:32;9.02;;;3.83;;
20296;SDS011;10307;40.100;18.336;2022-12-07T10:39:45;11.90;;;3.60;;
20296;SDS011;10307;40.100;18.336;2022-12-07T10:42:20;7.13;;;2.78;;
20296;SDS011;10307;40.100;18.336;2022-12-07T10:53:05;9.23;;;2.60;;
20296;SDS011;10307;40.100;18.336;2022-12-07T11:00:52;16.02;;;4.70;;
20296;SDS011;10307;40.100;18.336;2022-12-07T11:04:07;11.52;;;3.15;;
20296;SDS011;10307;40.100;18.336;2022-12-07T11:14:53;26.58;;;11.18;;
20296;SDS011;10307;40.100;18.336;2022-12-07T11:17:28;13.52;;;5.22;;
20296;SDS011;10307;40.100;18.336;2022-12-07T11:28:25;10.43;;;4.15;;
20296;SDS011;10307;40.100;18.336;2022-12-07T11:36:37;17.00;;;5.20;;
20296;SDS011;10307;40.100;18.336;2022-12-07T11:39:20;11.15;;;3.97;;
20296;SDS011;10307;40.100;18.336;2022-12-07T11:41:57;9.73;;;3.17;;
20296;SDS011;10307;40.100;18.336;2022-12-07T11:47:07;17.15;;;4.28;;
20296;SDS011;10307;40.100;18.336;2022-12-07T11:49:43;19.48;;;7.75;;
20296;SDS011;10307;40.100;18.336;2022-12-07T11:52:44;15.27;;;6.53;;
20296;SDS011;10307;40.100;18.336;2022-12-07T12:06:41;17.92;;;4.38;;
20296;SDS011;10307;40.100;18.336;2022-12-07T12:17:53;32.58;;;11.23;;
20296;SDS011;10307;40.100;18.336;2022-12-07T12:21:07;27.15;;;13.15;;
20296;SDS011;10307;40.100;18.336;2022-12-07T12:26:41;27.13;;;11.32;;
20296;SDS011;10307;40.100;18.336;2022-12-07T12:29:21;15.38;;;5.22;;
20296;SDS011;10307;40.100;18.336;2022-12-07T12:32:07;10.10;;;4.45;;
20296;SDS011;10307;40.100;18.336;2022-12-07T12:37:49;20.85;;;5.20;;
20296;SDS011;10307;40.100;18.336;2022-12-07T12:42:54;23.92;;;7.93;;
20296;SDS011;10307;40.100;18.336;2022-12-07T12:45:22;15.27;;;4.45;;
20296;SDS011;10307;40.100;18.336;2022-12-07T12:50:26;15.18;;;3.95;;
20296;SDS011;10307;40.100;18.336;2022-12-07T12:53:12;8.60;;;3.20;;
20296;SDS011;10307;40.100;18.336;2022-12-07T12:58:29;12.50;;;4.65;;
20296;SDS011;10307;40.100;18.336;2022-12-07T13:04:00;13.32;;;4.88;;
20296;SDS011;10307;40.100;18.336;2022-12-07T13:06:34;14.75;;;4.20;;
20296;SDS011;10307;40.100;18.336;2022-12-07T13:09:03;11.95;;;2.67;;
20296;SDS011;10307;40.100;18.336;2022-12-07T13:11:35;10.18;;;4.03;;
20296;SDS011;10307;40.100;18.336;2022-12-07T13:17:10;12.47;;;4.40;;
20296;SDS011;10307;40.100;18.336;2022-12-07T13:22:49;24.83;;;6.30;;
20296;SDS011;10307;40.100;18.336;2022-12-07T13:24:57;11.52;;;3.90;;
20296;SDS011;10307;40.100;18.336;2022-12-07T13:27:43;29.67;;;4.57;;
20296;SDS011;10307;40.100;18.336;2022-12-07T13:30:24;22.02;;;6.15;;
20296;SDS011;10307;40.100;18.336;2022-12-07T13:32:55;17.77;;;4.40;;
20296;SDS011;10307;40.100;18.336;2022-12-07T13:35:28;18.38;;;7.13;;
20296;SDS011;10307;40.100;18.336;2022-12-07T13:37:56;20.10;;;8.13;;
20296;SDS011;10307;40.100;18.336;2022-12-07T13:40:22;16.52;;;7.57;;
20296;SDS011;10307;40.100;18.336;2022-12-07T13:43:00;21.83;;;5.95;;
20296;SDS011;10307;40.100;18.336;2022-12-07T13:45:32;17.80;;;5.07;;
20296;SDS011;10307;40.100;18.336;2022-12-07T13:48:15;13.85;;;4.22;;
20296;SDS011;10307;40.100;18.336;2022-12-07T13:50:54;16.50;;;7.88;;
20296;SDS011;10307;40.100;18.336;2022-12-07T13:53:23;18.23;;;5.78;;
20296;SDS011;10307;40.100;18.336;2022-12-07T13:56:02;10.75;;;4.43;;
20296;SDS011;10307;40.100;18.336;2022-12-07T13:58:30;20.30;;;4.57;;
20296;SDS011;10307;40.100;18.336;2022-12-07T14:00:58;15.88;;;4.45;;
20296;SDS011;10307;40.100;18.336;2022-12-07T14:03:27;11.60;;;3.47;;
20296;SDS011;10307;40.100;18.336;2022-12-07T14:06:03;12.77;;;4.15;;
20296;SDS011;10307;40.100;18.336;2022-12-07T14:08:31;18.50;;;4.20;;
20296;SDS011;10307;40.100;18.336;2022-12-07T14:10:57;7.80;;;2.80;;
20296;SDS011;10307;40.100;18.336;2022-12-07T14:13:29;10.43;;;3.67;;
20296;SDS011;10307;40.100;18.336;2022-12-07T14:15:57;16.20;;;3.90;;
20296;SDS011;10307;40.100;18.336;2022-12-07T14:18:28;12.00;;;3.60;;
20296;SDS011;10307;40.100;18.336;2022-12-07T14:21:23;13.80;;;4.93;;
20296;SDS011;10307;40.100;18.336;2022-12-07T14:26:38;14.20;;;4.28;;
20296;SDS011;10307;40.100;18.336;2022-12-07T14:32:10;15.50;;;7.65;;
20296;SDS011;10307;40.100;18.336;2022-12-07T14:34:55;14.32;;;5.20;;
20296;SDS011;10307;40.100;18.336;2022-12-07T14:37:27;12.82;;;3.78;;
20296;SDS011;10307;40.100;18.336;2022-12-07T14:39:54;11.95;;;4.13;;
20296;SDS011;10307;40.100;18.336;2022-12-07T14:42:21;13.13;;;4.35;;
20296;SDS011;10307;40.100;18.336;2022-12-07T14:44:51;11.43;;;4.20;;
20296;SDS011;10307;40.100;18.336;2022-12-07T14:47:18;11.40;;;3.80;;
20296;SDS011;10307;40.100;18.336;2022-12-07T14:49:45;19.15;;;4.38;;
20296;SDS011;10307;40.100;18.336;2022-12-07T14:52:15;16.30;;;4.30;;
20296;SDS011;10307;40.100;18.336;2022-12-07T14:54:46;12.00;;;3.72;;
20296;SDS011;10307;40.100;18.336;2022-12-07T14:57:12;11.30;;;3.50;;
20296;SDS011;10307;40.100;18.336;2022-12-07T14:59:39;13.50;;;4.32;;
20296;SDS011;10307;40.100;18.336;2022-12-07T15:02:05;13.40;;;5.38;;
20296;SDS011;10307;40.100;18.336;2022-12-07T15:04:35;15.65;;;8.60;;
20296;SDS011;10307;40.100;18.336;2022-12-07T15:07:02;18.42;;;8.82;;
20296;SDS011;10307;40.100;18.336;2022-12-07T15:09:30;47.78;;;25.95;;
20296;SDS011;10307;40.100;18.336;2022-12-07T15:11:57;63.45;;;37.63;;
20296;SDS011;10307;40.100;18.336;2022-12-07T15:14:23;41.00;;;27.90;;
20296;SDS011;10307;40.100;18.336;2022-12-07T15:16:50;30.42;;;19.40;;
20296;SDS011;10307;40.100;18.336;2022-12-07T15:19:17;24.40;;;12.88;;
20296;SDS011;10307;40.100;18.336;2022-12-07T15:21:48;17.45;;;9.27;;
20296;SDS011;10307;40.100;18.336;2022-12-07T15:24:15;17.48;;;8.85;;
20296;SDS011;10307;40.100;18.336;2022-12-07T15:26:42;17.38;;;7.70;;
20296;SDS011;10307;40.100;18.336;2022-12-07T15:29:10;17.98;;;7.82;;
20296;SDS011;10307;40.100;18.336;2022-12-07T15:31:37;17.60;;;8.35;;
20296;SDS011;10307;40.100;18.336;2022-12-07T15:34:03;25.75;;;10.77;;
20296;SDS011;10307;40.100;18.336;2022-12-07T15:36:30;27.65;;;10.98;;
20296;SDS011;10307;40.100;18.336;2022-12-07T15:38:58;22.10;;;12.63;;
20296;SDS011;10307;40.100;18.336;2022-12-07T15:41:25;24.63;;;12.10;;
20296;SDS011;10307;40.100;18.336;2022-12-07T15:43:52;24.90;;;14.02;;
20296;SDS011;10307;40.100;18.336;2022-12-07T15:46:38;34.17;;;15.63;;
20296;SDS011;10307;40.100;18.336;2022-12-07T15:49:07;46.53;;;28.30;;
20296;SDS011;10307;40.100;18.336;2022-12-07T15:51:36;29.73;;;19.70;;
20296;SDS011;10307;40.100;18.336;2022-12-07T15:54:02;31.10;;;19.60;;
20296;SDS011;10307;40.100;18.336;2022-12-07T15:56:29;42.78;;;20.30;;
20296;SDS011;10307;40.100;18.336;2022-12-07T15:58:56;31.38;;;20.75;;
20296;SDS011;10307;40.100;18.336;2022-12-07T16:01:22;36.45;;;21.00;;
20296;SDS011;10307;40.100;18.336;2022-12-07T16:03:48;34.60;;;20.52;;
20296;SDS011;10307;40.100;18.336;2022-12-07T16:06:16;34.45;;;18.83;;
20296;SDS011;10307;40.100;18.336;2022-12-07T16:08:44;29.13;;;15.20;;
20296;SDS011;10307;40.100;18.336;2022-12-07T16:11:11;26.13;;;15.45;;
20296;SDS011;10307;40.100;18.336;2022-12-07T16:13:37;31.00;;;15.35;;
20296;SDS011;10307;40.100;18.336;2022-12-07T16:16:05;28.75;;;16.13;;
20296;SDS011;10307;40.100;18.336;2022-12-07T16:18:35;31.55;;;16.90;;
20296;SDS011;10307;40.100;18.336;2022-12-07T16:21:01;35.75;;;19.65;;
20296;SDS011;10307;40.100;18.336;2022-12-07T16:23:28;39.88;;;22.50;;
20296;SDS011;10307;40.100;18.336;2022-12-07T16:26:02;38.13;;;22.52;;
20296;SDS011;10307;40.100;18.336;2022-12-07T16:28:32;43.03;;;27.23;;
20296;SDS011;10307;40.100;18.336;2022-12-07T16:31:00;44.40;;;26.10;;
20296;SDS011;10307;40.100;18.336;2022-12-07T16:33:27;88.10;;;50.17;;
20296;SDS011;10307;40.100;18.336;2022-12-07T16:35:54;90.88;;;50.78;;
20296;SDS011;10307;40.100;18.336;2022-12-07T16:38:21;84.47;;;41.13;;
20296;SDS011;10307;40.100;18.336;2022-12-07T16:40:47;72.90;;;44.55;;
20296;SDS011;10307;40.100;18.336;2022-12-07T16:43:14;82.25;;;49.83;;
20296;SDS011;10307;40.100;18.336;2022-12-07T16:45:40;96.20;;;51.78;;
20296;SDS011;10307;40.100;18.336;2022-12-07T16:48:06;81.20;;;45.03;;
20296;SDS011;10307;40.100;18.336;2022-12-07T16:50:33;76.32;;;46.50;;
20296;SDS011;10307;40.100;18.336;2022-12-07T16:52:59;77.95;;;41.50;;
20296;SDS011;10307;40.100;18.336;2022-12-07T16:55:26;69.38;;;42.13;;